ID Time Temp Humidity Light PM2.5 PM10 Voltage Extra Firmware Position Fcnt TTN version Gateways Distance RSSI LSNR Radiosettings
2026-05-09 11:23:27 20.9375°C 49.25% 6 μg/m³ 6 μg/m³ 3.26V v255 52.1224 / 5.18613 24170 ttn.v3 - -123 -10.5 867.5MHz, SF9BW125, 4/5CR
- -111 -13.75 867.5MHz, SF9BW125, 4/5CR
- -131 -14.75 867.5MHz, SF9BW125, 4/5CR
2026-05-09 11:06:59 20.6875°C 52.6875% 6 μg/m³ 7 μg/m³ 3.26V v255 52.1224 / 5.18613 24169 ttn.v3 - -124 -13 868.3MHz, SF9BW125, 4/5CR
2026-05-09 10:50:31 20.625°C 53.125% 8 μg/m³ 8 μg/m³ 3.27V v255 52.1224 / 5.18613 24168 ttn.v3 - -122 -6.5 867.3MHz, SF9BW125, 4/5CR
2026-05-09 10:34:04 18°C 105.562% 5 μg/m³ 5 μg/m³ 3.27V v255 52.1224 / 5.18613 24167 ttn.v3 3.779km -99 -10.25 868.1MHz, SF9BW125, 4/5CR
- -130 -13.5 868.1MHz, SF9BW125, 4/5CR
2026-05-09 10:01:12 14.9375°C 15.125% 7 μg/m³ 7 μg/m³ 3.27V v255 52.1224 / 5.18613 24165 ttn.v3 - -121 -7.75 868.5MHz, SF9BW125, 4/5CR
2026-05-09 09:44:46 14.625°C 117.312% 6 μg/m³ 6 μg/m³ 3.27V v255 52.1224 / 5.18613 24164 ttn.v3 3.779km -109 0 867.9MHz, SF9BW125, 4/5CR
- -115 -3 867.9MHz, SF9BW125, 4/5CR
2026-05-09 09:28:20 13.375°C 79.9375% 7 μg/m³ 7 μg/m³ 3.27V v255 52.1224 / 5.18613 24163 ttn.v3 - -129 -12.25 868.3MHz, SF9BW125, 4/5CR
2026-05-09 08:55:30 12.125°C 39.3125% 18 μg/m³ 20 μg/m³ 3.27V v255 52.1224 / 5.18613 24161 ttn.v3 3.779km -104 -3.75 868.1MHz, SF9BW125, 4/5CR
2026-05-09 08:22:40 10.5°C 39.125% 22 μg/m³ 24 μg/m³ 3.27V v255 52.1224 / 5.18613 24159 ttn.v3 - -124 -10.5 868.5MHz, SF9BW125, 4/5CR
2026-05-09 08:06:15 9.875°C 39.0625% 23 μg/m³ 24 μg/m³ 3.27V v255 52.1224 / 5.18613 24158 ttn.v3 3.779km -99 -5.25 867.3MHz, SF9BW125, 4/5CR
2026-05-09 07:50:39 9.3125°C 39% 27 μg/m³ 28 μg/m³ 3.27V v255 52.1224 / 5.18613 24157 ttn.v3 - -124 -14.25 868.3MHz, SF12BW125, 4/5CR
- -133 -18.25 868.3MHz, SF12BW125, 4/5CR
2026-05-09 07:17:06 8.125°C 38.875% 29 μg/m³ 29 μg/m³ 3.28V v255 52.1225 / 5.1861 24155 ttn.v3 3.786km -103 -7.25 868.1MHz, SF9BW125, 4/5CR
2026-05-09 07:00:42 7.5°C 38.8125% 22 μg/m³ 23 μg/m³ 3.28V v255 52.1225 / 5.1861 24154 ttn.v3 3.786km -107 -2 867.9MHz, SF9BW125, 4/5CR
- -113 -2.25 867.9MHz, SF9BW125, 4/5CR
- -127 -11.75 867.9MHz, SF9BW125, 4/5CR
2026-05-09 06:44:18 7.375°C 38.75% 26 μg/m³ 27 μg/m³ 3.28V v255 52.1225 / 5.1861 24153 ttn.v3 - -126 -12 868.5MHz, SF9BW125, 4/5CR
2026-05-09 06:27:54 7.125°C 38.75% 20 μg/m³ 21 μg/m³ 3.28V v255 52.1225 / 5.1861 24152 ttn.v3 - -130 -14.25 867.7MHz, SF9BW125, 4/5CR
2026-05-09 05:55:06 7.4375°C 38.8125% 16 μg/m³ 16 μg/m³ 3.28V v255 52.1225 / 5.1861 24150 ttn.v3 - -122 -11.5 867.5MHz, SF9BW125, 4/5CR
2026-05-09 05:38:41 7.625°C 38.8125% 26 μg/m³ 26 μg/m³ 3.28V v255 52.1225 / 5.1861 24149 ttn.v3 - -119 -8.75 868.1MHz, SF9BW125, 4/5CR
- -129 -13.5 868.1MHz, SF9BW125, 4/5CR
2026-05-09 05:22:17 7.1875°C 38.75% 18 μg/m³ 19 μg/m³ 3.28V v255 52.1225 / 5.1861 24148 ttn.v3 3.786km -105 0.5 867.3MHz, SF9BW125, 4/5CR
- -112 -1 867.3MHz, SF9BW125, 4/5CR
- -122 -6.5 867.3MHz, SF9BW125, 4/5CR
2026-05-09 05:05:53 7.6875°C 38.8125% 16 μg/m³ 16 μg/m³ 3.28V v255 52.1225 / 5.1861 24147 ttn.v3 - -126 -13 868.5MHz, SF9BW125, 4/5CR
2026-05-09 04:49:29 8.0625°C 38.875% 13 μg/m³ 14 μg/m³ 3.28V v255 52.1225 / 5.1861 24146 ttn.v3 3.786km -105 0.5 867.1MHz, SF9BW125, 4/5CR
2026-05-09 04:16:41 7.9375°C 38.8125% 18 μg/m³ 18 μg/m³ 3.28V v255 52.1225 / 5.1861 24144 ttn.v3 3.786km -105 -1 867.9MHz, SF9BW125, 4/5CR
2026-05-09 04:00:17 7.375°C 38.8125% 12 μg/m³ 13 μg/m³ 3.28V v255 52.1225 / 5.1861 24143 ttn.v3 3.786km -103 -6 868.1MHz, SF9BW125, 4/5CR
- -116 -7.75 868.1MHz, SF9BW125, 4/5CR
- -125 -10.25 868.1MHz, SF9BW125, 4/5CR
2026-05-09 03:43:52 7.8125°C 38.8125% 16 μg/m³ 16 μg/m³ 3.28V v255 52.1225 / 5.1861 24142 ttn.v3 3.786km -104 -1.5 867.7MHz, SF9BW125, 4/5CR
- -124 -8 867.7MHz, SF9BW125, 4/5CR
- -111 -9.75 867.7MHz, SF9BW125, 4/5CR
- -131 -14.75 867.7MHz, SF9BW125, 4/5CR
2026-05-09 03:27:28 8.1875°C 38.875% 12 μg/m³ 13 μg/m³ 3.28V v255 52.1225 / 5.1861 24141 ttn.v3 - -126 -12.5 868.5MHz, SF9BW125, 4/5CR
2026-05-09 03:11:04 8°C 38.875% 13 μg/m³ 13 μg/m³ 3.28V v255 52.1225 / 5.1861 24140 ttn.v3 - -122 -11.75 867.5MHz, SF9BW125, 4/5CR
2026-05-09 02:54:39 8.4375°C 38.875% 10 μg/m³ 10 μg/m³ 3.27V v255 52.1225 / 5.1861 24139 ttn.v3 - -125 -13.75 868.3MHz, SF9BW125, 4/5CR
2026-05-09 02:38:15 9.125°C 38.9375% 22 μg/m³ 22 μg/m³ 3.28V v255 52.1225 / 5.1861 24138 ttn.v3 3.786km -107 -6.25 867.3MHz, SF9BW125, 4/5CR
2026-05-09 02:21:50 9.5°C 39% 13 μg/m³ 13 μg/m³ 3.28V v255 52.1225 / 5.1861 24137 ttn.v3 3.786km -103 -9.5 868.1MHz, SF9BW125, 4/5CR
- -119 -10 868.1MHz, SF9BW125, 4/5CR
- -127 -11.5 868.1MHz, SF9BW125, 4/5CR
2026-05-09 02:05:26 9.625°C 39% 11 μg/m³ 11 μg/m³ 3.27V v255 52.1225 / 5.1861 24136 ttn.v3 3.786km -104 1.25 867.1MHz, SF9BW125, 4/5CR
2026-05-09 01:32:36 10.125°C 39.0625% 11 μg/m³ 11 μg/m³ 3.27V v255 52.1225 / 5.1861 24134 ttn.v3 3.786km -102 -3 867.9MHz, SF9BW125, 4/5CR
2026-05-09 00:59:47 10.125°C 39.0625% 11 μg/m³ 11 μg/m³ 3.27V v255 52.1225 / 5.1861 24132 ttn.v3 3.786km -102 -10.75 867.7MHz, SF9BW125, 4/5CR
- -132 -15.5 867.7MHz, SF9BW125, 4/5CR
2026-05-09 00:43:22 9.9375°C 39.0625% 17 μg/m³ 17 μg/m³ 3.27V v255 52.1225 / 5.1861 24131 ttn.v3 - -122 -7 868.1MHz, SF9BW125, 4/5CR
- -115 -7.25 868.1MHz, SF9BW125, 4/5CR
2026-05-08 23:21:18 11°C 39.1875% 11 μg/m³ 12 μg/m³ 3.27V v255 52.1225 / 5.1861 24126 ttn.v3 3.786km -107 -0.75 867.1MHz, SF9BW125, 4/5CR
2026-05-08 23:04:53 11.375°C 56.3125% 11 μg/m³ 11 μg/m³ 3.27V v255 52.1225 / 5.1861 24125 ttn.v3 - -124 -8.75 868.1MHz, SF9BW125, 4/5CR
3.786km -105 -9.25 868.1MHz, SF9BW125, 4/5CR
2026-05-08 22:48:28 11.1875°C 60.3125% 10 μg/m³ 10 μg/m³ 3.27V v255 52.1225 / 5.1861 24124 ttn.v3 3.786km -106 -2.25 867.9MHz, SF9BW125, 4/5CR
- -114 -4 867.9MHz, SF9BW125, 4/5CR
- -128 -12 867.9MHz, SF9BW125, 4/5CR
2026-05-08 22:32:03 12°C 93.5% 9 μg/m³ 9 μg/m³ 3.27V v255 52.1225 / 5.1861 24123 ttn.v3 - -124 -10.25 868.5MHz, SF9BW125, 4/5CR
2026-05-08 22:15:38 11.625°C 39.1875% 9 μg/m³ 9 μg/m³ 3.27V v255 52.1225 / 5.1861 24122 ttn.v3 3.786km -110 -6 867.7MHz, SF9BW125, 4/5CR
2026-05-08 21:59:13 11.875°C 47.5% 8 μg/m³ 9 μg/m³ 3.27V v255 52.1225 / 5.1861 24121 ttn.v3 - -123 -11.75 868.3MHz, SF9BW125, 4/5CR
2026-05-08 21:42:47 12.375°C 110.25% 11 μg/m³ 11 μg/m³ 3.27V v255 52.1225 / 5.1861 24120 ttn.v3 - -129 -12.5 867.5MHz, SF9BW125, 4/5CR
2026-05-08 21:26:22 12.6875°C 20.4375% 28 μg/m³ 28 μg/m³ 3.27V v255 52.1225 / 5.1861 24119 ttn.v3 3.786km -98 -7.25 868.1MHz, SF9BW125, 4/5CR
- -125 -9 868.1MHz, SF9BW125, 4/5CR
- -119 -13.5 868.1MHz, SF9BW125, 4/5CR
- -131 -14.25 868.1MHz, SF9BW125, 4/5CR
2026-05-08 20:53:31 14.1875°C 112.125% 8 μg/m³ 8 μg/m³ 3.27V v255 52.1225 / 5.1861 24117 ttn.v3 - -125 -12.25 868.5MHz, SF9BW125, 4/5CR
2026-05-08 20:37:05 14.8125°C 87.4375% 6 μg/m³ 6 μg/m³ 3.27V v255 52.1225 / 5.1861 24116 ttn.v3 3.786km -102 -3.5 867.1MHz, SF9BW125, 4/5CR
- -123 -6.25 867.1MHz, SF9BW125, 4/5CR
- -119 -7.25 867.1MHz, SF9BW125, 4/5CR
2026-05-08 20:20:39 15.5°C 81.25% 7 μg/m³ 9 μg/m³ 3.27V v255 52.1225 / 5.1861 24115 ttn.v3 - -131 -14.75 868.3MHz, SF9BW125, 4/5CR
2026-05-08 20:04:13 15.9375°C 76.9375% 10 μg/m³ 10 μg/m³ 3.27V v255 52.1225 / 5.1861 24114 ttn.v3 3.786km -109 -8.75 867.9MHz, SF9BW125, 4/5CR
- -130 -13 867.9MHz, SF9BW125, 4/5CR
2026-05-08 19:47:46 16°C 74.5% 9 μg/m³ 9 μg/m³ 3.27V v255 52.1225 / 5.1861 24113 ttn.v3 3.786km -101 -7.5 868.1MHz, SF9BW125, 4/5CR
- -124 -9 868.1MHz, SF9BW125, 4/5CR
- -119 -12.75 868.1MHz, SF9BW125, 4/5CR
2026-05-08 19:31:20 16.125°C 70.8125% 9 μg/m³ 10 μg/m³ 3.27V v255 52.1225 / 5.1861 24112 ttn.v3 - -122 -6 867.7MHz, SF9BW125, 4/5CR
3.786km -109 -8.5 867.7MHz, SF9BW125, 4/5CR
- -113 -11.5 867.7MHz, SF9BW125, 4/5CR
2026-05-08 18:58:27 16.5625°C 67% 11 μg/m³ 12 μg/m³ 3.27V v255 52.1225 / 5.1861 24110 ttn.v3 - -121 -12.75 867.5MHz, SF9BW125, 4/5CR
2026-05-08 18:09:08 17.1875°C 58.9375% 6 μg/m³ 6 μg/m³ 3.27V v255 52.1225 / 5.1861 24107 ttn.v3 3.786km -109 -7 868.1MHz, SF9BW125, 4/5CR
- -125 -9 868.1MHz, SF9BW125, 4/5CR
2026-05-08 17:52:41 17.1875°C 57.125% 8 μg/m³ 8 μg/m³ 3.27V v255 52.1225 / 5.1861 24106 ttn.v3 3.786km -107 -1.25 867.1MHz, SF9BW125, 4/5CR
- -130 -14 867.1MHz, SF9BW125, 4/5CR
2026-05-08 17:36:14 17.5°C 60.9375% 9 μg/m³ 9 μg/m³ 3.27V v255 52.1225 / 5.1861 24105 ttn.v3 - -128 -12.5 868.5MHz, SF9BW125, 4/5CR
2026-05-08 17:19:47 17.1875°C 55.8125% 9 μg/m³ 9 μg/m³ 3.27V v255 52.1225 / 5.1861 24104 ttn.v3 3.786km -103 -9 867.9MHz, SF9BW125, 4/5CR
- -127 -13.5 867.9MHz, SF9BW125, 4/5CR
- -130 -13.75 867.9MHz, SF9BW125, 4/5CR
2026-05-08 16:46:54 17.9375°C 55.3125% 6 μg/m³ 6 μg/m³ 3.27V v255 52.1225 / 5.1861 24102 ttn.v3 - -115 -2.25 867.7MHz, SF9BW125, 4/5CR
- -121 -5.25 867.7MHz, SF9BW125, 4/5CR
3.786km -107 -6 867.7MHz, SF9BW125, 4/5CR
2026-05-08 16:30:27 17.9375°C 56.0625% 6 μg/m³ 7 μg/m³ 3.27V v255 52.1225 / 5.1861 24101 ttn.v3 - -115 -6 868.1MHz, SF9BW125, 4/5CR
- -123 -7 868.1MHz, SF9BW125, 4/5CR
2026-05-08 16:14:00 17.25°C 60.25% 8 μg/m³ 10 μg/m³ 3.27V v255 52.1225 / 5.1861 24100 ttn.v3 - -122 -11 867.5MHz, SF9BW125, 4/5CR
2026-05-08 15:41:07 17.0625°C 62.25% 12 μg/m³ 12 μg/m³ 3.27V v255 52.1225 / 5.1861 24098 ttn.v3 3.786km -98 -1.75 867.3MHz, SF9BW125, 4/5CR
- -114 -2.75 867.3MHz, SF9BW125, 4/5CR
- -122 -6.75 867.3MHz, SF9BW125, 4/5CR
2026-05-08 15:08:14 17.25°C 61.4375% 13 μg/m³ 14 μg/m³ 3.27V v255 52.1225 / 5.1861 24096 ttn.v3 3.786km -102 -5.25 867.1MHz, SF9BW125, 4/5CR
- -117 -6 867.1MHz, SF9BW125, 4/5CR
- -126 -10 867.1MHz, SF9BW125, 4/5CR
- -131 -14.5 867.1MHz, SF9BW125, 4/5CR
2026-05-08 14:51:47 17.1875°C 62.125% 12 μg/m³ 12 μg/m³ 3.27V v255 52.1225 / 5.1861 24095 ttn.v3 - -117 -7.75 868.1MHz, SF9BW125, 4/5CR
3.786km -103 -10.5 868.1MHz, SF9BW125, 4/5CR
- -124 -11.25 868.1MHz, SF9BW125, 4/5CR
- -131 -14 868.1MHz, SF9BW125, 4/5CR
2026-05-08 14:35:21 17.125°C 62.0625% 8 μg/m³ 8 μg/m³ 3.27V v255 52.1225 / 5.1861 24094 ttn.v3 3.786km -111 -8.25 867.9MHz, SF9BW125, 4/5CR
- -128 -11.5 867.9MHz, SF9BW125, 4/5CR
2026-05-08 14:18:54 17.125°C 60.8125% 9 μg/m³ 12 μg/m³ 3.27V v255 52.1225 / 5.1861 24093 ttn.v3 - -128 -11.75 868.5MHz, SF9BW125, 4/5CR
2026-05-08 14:02:28 17.0625°C 61% 8 μg/m³ 9 μg/m³ 3.27V v255 52.1225 / 5.1861 24092 ttn.v3 - -114 -0.25 867.7MHz, SF9BW125, 4/5CR
3.786km -105 -0.75 867.7MHz, SF9BW125, 4/5CR
- -122 -6.25 867.7MHz, SF9BW125, 4/5CR
2026-05-08 13:46:01 17.5°C 60.5% 15 μg/m³ 16 μg/m³ 3.27V v255 52.1225 / 5.1861 24091 ttn.v3 - -128 -12 868.3MHz, SF9BW125, 4/5CR
2026-05-08 13:29:34 18°C 59.0625% 9 μg/m³ 9 μg/m³ 3.27V v255 52.1225 / 5.1861 24090 ttn.v3 - -129 -13.75 867.5MHz, SF9BW125, 4/5CR
2026-05-08 13:13:07 19.1875°C 57% 9 μg/m³ 9 μg/m³ 3.27V v255 52.1225 / 5.1861 24089 ttn.v3 3.786km -103 -10 868.1MHz, SF9BW125, 4/5CR
- -125 -10.5 868.1MHz, SF9BW125, 4/5CR
- -129 -12.25 868.1MHz, SF9BW125, 4/5CR
- -117 -13.75 868.1MHz, SF9BW125, 4/5CR
2026-05-08 12:56:39 21.0625°C 53.1875% 11 μg/m³ 11 μg/m³ 3.26V v255 52.1225 / 5.1861 24088 ttn.v3 3.786km -104 -1.5 867.3MHz, SF9BW125, 4/5CR
- -116 -5.25 867.3MHz, SF9BW125, 4/5CR
- -123 -7.75 867.3MHz, SF9BW125, 4/5CR
2026-05-08 12:40:12 19.375°C 113.75% 8 μg/m³ 8 μg/m³ 3.27V v255 52.1225 / 5.1861 24087 ttn.v3 - -129 -13.25 868.5MHz, SF9BW125, 4/5CR
2026-05-08 12:23:45 18.6875°C 111.25% 10 μg/m³ 10 μg/m³ 3.27V v255 52.1225 / 5.1861 24086 ttn.v3 3.786km -107 -0.75 867.1MHz, SF9BW125, 4/5CR
- -129 -12.25 867.1MHz, SF9BW125, 4/5CR
2026-05-08 12:07:18 18.1875°C 97.1875% 10 μg/m³ 10 μg/m³ 3.27V v255 52.1225 / 5.1861 24085 ttn.v3 - -129 -13.5 868.3MHz, SF9BW125, 4/5CR
2026-05-08 11:50:51 18.5°C 100.688% 16 μg/m³ 19 μg/m³ 3.27V v255 52.1225 / 5.1861 24084 ttn.v3 - -108 4.25 867.9MHz, SF9BW125, 4/5CR
3.786km -110 -3.5 867.9MHz, SF9BW125, 4/5CR
- -124 -8 867.9MHz, SF9BW125, 4/5CR
2026-05-08 11:34:24 18.375°C 97.8125% 8 μg/m³ 8 μg/m³ 3.27V v255 52.1225 / 5.1861 24083 ttn.v3 3.786km -105 -6.5 868.1MHz, SF9BW125, 4/5CR
- -122 -7.5 868.1MHz, SF9BW125, 4/5CR
- -114 -9 868.1MHz, SF9BW125, 4/5CR
2026-05-08 11:17:57 17.5625°C 91.3125% 11 μg/m³ 11 μg/m³ 3.27V v255 52.1225 / 5.1861 24082 ttn.v3 - -114 0.5 867.7MHz, SF9BW125, 4/5CR
3.786km -105 0 867.7MHz, SF9BW125, 4/5CR
- -121 -5.5 867.7MHz, SF9BW125, 4/5CR
2026-05-08 11:01:30 17.6875°C 13.1875% 8 μg/m³ 8 μg/m³ 3.27V v255 52.1225 / 5.1861 24081 ttn.v3 - -128 -11.75 868.5MHz, SF9BW125, 4/5CR
2026-05-08 10:28:38 14.4375°C 94.3125% 17 μg/m³ 17 μg/m³ 3.27V v255 52.1225 / 5.1861 24079 ttn.v3 - -122 -11 868.3MHz, SF9BW125, 4/5CR
- -130 -14 868.3MHz, SF9BW125, 4/5CR
2026-05-08 10:12:12 13.625°C 67.9375% 13 μg/m³ 14 μg/m³ 3.27V v255 52.1225 / 5.1861 24078 ttn.v3 3.786km -105 -8.5 867.3MHz, SF9BW125, 4/5CR
2026-05-08 09:55:47 12.9375°C 60.8125% 15 μg/m³ 16 μg/m³ 3.27V v255 52.1225 / 5.1861 24077 ttn.v3 - -122 -7.75 868.1MHz, SF9BW125, 4/5CR
3.786km -107 -8.75 868.1MHz, SF9BW125, 4/5CR
- -116 -10.5 868.1MHz, SF9BW125, 4/5CR
- -128 -11 868.1MHz, SF9BW125, 4/5CR
2026-05-08 09:39:21 12.1875°C 45.5% 20 μg/m³ 21 μg/m³ 3.27V v255 52.1225 / 5.1861 24076 ttn.v3 - -110 3.5 867.1MHz, SF9BW125, 4/5CR
3.786km -107 -3.25 867.1MHz, SF9BW125, 4/5CR
2026-05-08 09:22:56 11.4375°C 39.1875% 15 μg/m³ 16 μg/m³ 3.27V v255 52.1225 / 5.1861 24075 ttn.v3 - -127 -11 868.5MHz, SF9BW125, 4/5CR
- -127 -12.25 868.5MHz, SF9BW125, 4/5CR
2026-05-08 09:06:31 11.1875°C 39.1875% 21 μg/m³ 21 μg/m³ 3.27V v255 52.1225 / 5.1861 24074 ttn.v3 3.786km -105 4 867.9MHz, SF9BW125, 4/5CR
- -114 -0.25 867.9MHz, SF9BW125, 4/5CR
2026-05-08 08:50:06 10.4375°C 39.125% 22 μg/m³ 23 μg/m³ 3.27V v255 52.1225 / 5.1861 24073 ttn.v3 - -129 -13 868.3MHz, SF9BW125, 4/5CR
2026-05-08 08:33:42 10.25°C 39.0625% 20 μg/m³ 21 μg/m³ 3.27V v255 52.1225 / 5.1861 24072 ttn.v3 3.786km -103 -3.75 867.7MHz, SF9BW125, 4/5CR
2026-05-08 08:17:17 10°C 39.0625% 24 μg/m³ 26 μg/m³ 3.27V v255 52.1225 / 5.1861 24071 ttn.v3 - -121 -5 868.1MHz, SF9BW125, 4/5CR
- -127 -10.75 868.1MHz, SF9BW125, 4/5CR
2026-05-08 07:44:27 9.625°C 39% 25 μg/m³ 26 μg/m³ 3.27V v255 52.1225 / 5.1861 24069 ttn.v3 - -127 -12.5 868.5MHz, SF9BW125, 4/5CR
2026-05-08 07:28:03 9.5°C 39% 27 μg/m³ 27 μg/m³ 3.28V v255 52.1225 / 5.1861 24068 ttn.v3 - -116 -1.25 867.3MHz, SF9BW125, 4/5CR
3.786km -104 -2.75 867.3MHz, SF9BW125, 4/5CR
2026-05-08 07:11:38 9.25°C 39% 29 μg/m³ 29 μg/m³ 3.27V v255 52.1225 / 5.1861 24067 ttn.v3 - -122 -12.5 868.3MHz, SF9BW125, 4/5CR
- -129 -12.5 868.3MHz, SF9BW125, 4/5CR
2026-05-08 06:55:14 9.3125°C 39% 29 μg/m³ 29 μg/m³ 3.28V v255 52.1225 / 5.1861 24066 ttn.v3 3.786km -105 3.5 867.1MHz, SF9BW125, 4/5CR
- -129 -11.75 867.1MHz, SF9BW125, 4/5CR
2026-05-08 06:38:49 9.1875°C 39% 28 μg/m³ 32 μg/m³ 3.27V v255 52.1225 / 5.1861 24065 ttn.v3 - -121 -6 868.1MHz, SF9BW125, 4/5CR
- -129 -13 868.1MHz, SF9BW125, 4/5CR
- -120 -14 868.1MHz, SF9BW125, 4/5CR
2026-05-08 06:22:24 9.25°C 39% 27 μg/m³ 27 μg/m³ 3.28V v255 52.1225 / 5.1861 24064 ttn.v3 3.786km -104 0 867.9MHz, SF9BW125, 4/5CR
- -116 -7.75 867.9MHz, SF9BW125, 4/5CR
- -130 -13.25 867.9MHz, SF9BW125, 4/5CR
2026-05-08 06:06:00 9.3125°C 39% 24 μg/m³ 26 μg/m³ 3.27V v255 52.1225 / 5.1861 24063 ttn.v3 - -126 -11.25 868.5MHz, SF9BW125, 4/5CR
2026-05-08 05:49:35 9.3125°C 39% 22 μg/m³ 22 μg/m³ 3.27V v255 52.1225 / 5.1861 24062 ttn.v3 3.786km -105 -1 867.7MHz, SF9BW125, 4/5CR
- -113 -2.25 867.7MHz, SF9BW125, 4/5CR
- -125 -9 867.7MHz, SF9BW125, 4/5CR
- -130 -13.25 867.7MHz, SF9BW125, 4/5CR
2026-05-08 05:33:51 9.5°C 39% 16 μg/m³ 16 μg/m³ 3.27V v255 52.1225 / 5.1861 24061 ttn.v3 - -111 -14 868.3MHz, SF12BW125, 4/5CR
- -125 -14.5 868.3MHz, SF12BW125, 4/5CR
- -131 -15.25 868.3MHz, SF12BW125, 4/5CR
2026-05-08 05:16:50 9.5625°C 39% 19 μg/m³ 19 μg/m³ 3.28V v255 52.1224 / 5.18616 24060 ttn.v3 - -123 -9.25 867.5MHz, SF9BW125, 4/5CR
2026-05-08 05:00:25 9.75°C 39.0625% 23 μg/m³ 24 μg/m³ 3.27V v255 52.1224 / 5.18616 24059 ttn.v3 3.78km -105 -3.5 868.1MHz, SF9BW125, 4/5CR
- -115 -5 868.1MHz, SF9BW125, 4/5CR
- -124 -9 868.1MHz, SF9BW125, 4/5CR
2026-05-08 04:44:00 9.75°C 39% 21 μg/m³ 22 μg/m³ 3.27V v255 52.1224 / 5.18616 24058 ttn.v3 3.78km -105 -3.25 867.3MHz, SF9BW125, 4/5CR
2026-05-08 04:11:11 10.125°C 39.0625% 14 μg/m³ 14 μg/m³ 3.27V v255 52.1224 / 5.18616 24056 ttn.v3 3.78km -107 -1 867.1MHz, SF9BW125, 4/5CR
- -130 -14 867.1MHz, SF9BW125, 4/5CR
2026-05-08 03:38:21 10.375°C 25.5% 18 μg/m³ 18 μg/m³ 3.27V v255 52.1224 / 5.18616 24054 ttn.v3 3.78km -107 0.5 867.9MHz, SF9BW125, 4/5CR
2026-05-08 03:21:56 10.5625°C 90.125% 20 μg/m³ 21 μg/m³ 3.27V v255 52.1224 / 5.18616 24053 ttn.v3 3.78km -104 -6.25 868.1MHz, SF9BW125, 4/5CR
- -123 -6.75 868.1MHz, SF9BW125, 4/5CR
2026-05-08 03:05:31 10.625°C 103.5% 14 μg/m³ 15 μg/m³ 3.27V v255 52.1224 / 5.18616 24052 ttn.v3 - -111 2 867.7MHz, SF9BW125, 4/5CR
3.78km -104 -3.75 867.7MHz, SF9BW125, 4/5CR
- -128 -11.75 867.7MHz, SF9BW125, 4/5CR
2026-05-08 02:16:16 11°C 13.25% 12 μg/m³ 13 μg/m³ 3.27V v255 52.1224 / 5.18616 24049 ttn.v3 - -130 -13.5 868.3MHz, SF9BW125, 4/5CR
2026-05-08 01:59:51 11.125°C 17.75% 14 μg/m³ 15 μg/m³ 3.27V v255 52.1224 / 5.18616 24048 ttn.v3 3.78km -104 -1.5 867.3MHz, SF9BW125, 4/5CR
2026-05-08 01:43:26 11.1875°C 33.3125% 20 μg/m³ 20 μg/m³ 3.27V v255 52.1224 / 5.18616 24047 ttn.v3 - -114 -3.5 868.1MHz, SF9BW125, 4/5CR
- -126 -9.75 868.1MHz, SF9BW125, 4/5CR
2026-05-08 01:27:01 11.4375°C 49.9375% 15 μg/m³ 15 μg/m³ 3.27V v255 52.1224 / 5.18616 24046 ttn.v3 3.78km -105 2.25 867.1MHz, SF9BW125, 4/5CR
- -127 -10.25 867.1MHz, SF9BW125, 4/5CR
2026-05-08 01:10:36 11.5625°C 64.1875% 15 μg/m³ 16 μg/m³ 3.27V v255 52.1224 / 5.18616 24045 ttn.v3 - -127 -12.25 868.5MHz, SF9BW125, 4/5CR
2026-05-08 00:54:11 11.6875°C 74.5% 12 μg/m³ 13 μg/m³ 3.27V v255 52.1224 / 5.18616 24044 ttn.v3 3.78km -104 0.5 867.9MHz, SF9BW125, 4/5CR
2026-05-08 00:21:21 12°C 94.75% 10 μg/m³ 10 μg/m³ 3.27V v255 52.1224 / 5.18616 24042 ttn.v3 - -114 2.25 867.7MHz, SF9BW125, 4/5CR
3.78km -105 1.75 867.7MHz, SF9BW125, 4/5CR
- -124 -7.5 867.7MHz, SF9BW125, 4/5CR
2026-05-08 00:04:55 12.125°C 96.3125% 11 μg/m³ 11 μg/m³ 3.27V v255 52.1224 / 5.18616 24041 ttn.v3 - -116 -5.75 868.1MHz, SF9BW125, 4/5CR
- -122 -7 868.1MHz, SF9BW125, 4/5CR
3.78km -102 -11.5 868.1MHz, SF9BW125, 4/5CR
2026-05-07 23:48:30 12.25°C 103.5% 11 μg/m³ 11 μg/m³ 3.27V v255 52.1224 / 5.18616 24040 ttn.v3 - -107 -8.75 867.5MHz, SF9BW125, 4/5CR
2026-05-07 23:15:39 12.4375°C 112.875% 6 μg/m³ 7 μg/m³ 3.27V v255 52.1224 / 5.18616 24038 ttn.v3 - -111 1 867.3MHz, SF9BW125, 4/5CR
- -125 -8.75 867.3MHz, SF9BW125, 4/5CR
2026-05-07 22:42:49 12.625°C 112.062% 8 μg/m³ 11 μg/m³ 3.27V v255 52.1224 / 5.18616 24036 ttn.v3 3.78km -105 1.5 867.1MHz, SF9BW125, 4/5CR
- -122 -5.25 867.1MHz, SF9BW125, 4/5CR
2026-05-07 22:09:58 13.0625°C 103.25% 2 μg/m³ 2 μg/m³ 3.27V v255 52.1224 / 5.18616 24034 ttn.v3 - -112 -0.25 867.9MHz, SF9BW125, 4/5CR
3.78km -109 -0.25 867.9MHz, SF9BW125, 4/5CR
2026-05-07 21:37:06 13.4375°C 86% 1 μg/m³ 1 μg/m³ 3.27V v255 52.1224 / 5.18616 24032 ttn.v3 3.78km -102 -1 867.7MHz, SF9BW125, 4/5CR
2026-05-07 21:20:41 13.625°C 82.75% 1 μg/m³ 1 μg/m³ 3.27V v255 52.1224 / 5.18616 24031 ttn.v3 - -122 -10.5 868.3MHz, SF9BW125, 4/5CR
2026-05-07 20:47:49 14°C 75.875% 1 μg/m³ 2 μg/m³ 3.27V v255 52.1224 / 5.18616 24029 ttn.v3 3.78km -105 -2.75 868.1MHz, SF9BW125, 4/5CR
- -115 -3.25 868.1MHz, SF9BW125, 4/5CR
- -126 -9.75 868.1MHz, SF9BW125, 4/5CR
2026-05-07 20:31:24 14.1875°C 72.375% 2 μg/m³ 3 μg/m³ 3.27V v255 52.1224 / 5.18616 24028 ttn.v3 3.78km -105 0.75 867.3MHz, SF9BW125, 4/5CR
- -112 -0.5 867.3MHz, SF9BW125, 4/5CR
- -123 -7 867.3MHz, SF9BW125, 4/5CR
2026-05-07 19:58:32 14.5°C 71.3125% 2 μg/m³ 3 μg/m³ 3.27V v255 52.1224 / 5.18616 24026 ttn.v3 - -121 -5 867.1MHz, SF9BW125, 4/5CR
- -130 -13 867.1MHz, SF9BW125, 4/5CR
2026-05-07 19:42:06 14.625°C 70.5625% 1 μg/m³ 1 μg/m³ 3.27V v255 52.1224 / 5.18616 24025 ttn.v3 - -123 -14 868.3MHz, SF9BW125, 4/5CR
2026-05-07 19:25:40 14.875°C 66.3125% 6 μg/m³ 6 μg/m³ 3.27V v255 52.1224 / 5.18616 24024 ttn.v3 3.78km -107 2.25 867.9MHz, SF9BW125, 4/5CR
- -113 -1.5 867.9MHz, SF9BW125, 4/5CR
- -127 -11.75 867.9MHz, SF9BW125, 4/5CR
2026-05-07 19:09:14 15°C 68.9375% 1 μg/m³ 2 μg/m³ 3.27V v255 52.1224 / 5.18616 24023 ttn.v3 3.78km -107 -3.25 868.1MHz, SF9BW125, 4/5CR
- -113 -5.5 868.1MHz, SF9BW125, 4/5CR
- -123 -7.5 868.1MHz, SF9BW125, 4/5CR
2026-05-07 18:52:48 15°C 66.8125% 4 μg/m³ 4 μg/m³ 3.27V v255 52.1224 / 5.18616 24022 ttn.v3 3.78km -107 -4 867.7MHz, SF9BW125, 4/5CR
- -121 -4.5 867.7MHz, SF9BW125, 4/5CR
2026-05-07 18:36:22 15.1875°C 65% 2 μg/m³ 2 μg/m³ 3.27V v255 52.1224 / 5.18616 24021 ttn.v3 - -124 -12 868.5MHz, SF9BW125, 4/5CR
2026-05-07 18:03:30 15.625°C 64.4375% 3 μg/m³ 3 μg/m³ 3.27V v255 52.1224 / 5.18616 24019 ttn.v3 - -130 -13.25 868.3MHz, SF9BW125, 4/5CR
2026-05-07 17:47:04 15.8125°C 63% 6 μg/m³ 9 μg/m³ 3.27V v255 52.1224 / 5.18616 24018 ttn.v3 - -117 -6.25 867.3MHz, SF9BW125, 4/5CR
2026-05-07 17:30:37 16.25°C 61.625% 4 μg/m³ 5 μg/m³ 3.27V v255 52.1224 / 5.18616 24017 ttn.v3 3.78km -88 -4.25 868.1MHz, SF9BW125, 4/5CR
- -107 -5.5 868.1MHz, SF9BW125, 4/5CR
- -125 -8.5 868.1MHz, SF9BW125, 4/5CR
2026-05-07 17:14:11 16.625°C 59% 2 μg/m³ 2 μg/m³ 3.27V v255 52.1224 / 5.18616 24016 ttn.v3 3.78km -105 -2.75 867.1MHz, SF9BW125, 4/5CR
- -121 -7 867.1MHz, SF9BW125, 4/5CR
- -116 -8 867.1MHz, SF9BW125, 4/5CR
- -131 -14.75 867.1MHz, SF9BW125, 4/5CR
2026-05-07 16:41:18 16.25°C 61.25% 2 μg/m³ 2 μg/m³ 3.27V v255 52.1224 / 5.18616 24014 ttn.v3 - -108 2 867.9MHz, SF9BW125, 4/5CR
3.78km -104 -4.25 867.9MHz, SF9BW125, 4/5CR
- -127 -11 867.9MHz, SF9BW125, 4/5CR
2026-05-07 16:24:52 16°C 58.75% 2 μg/m³ 2 μg/m³ 3.27V v255 52.1224 / 5.18616 24013 ttn.v3 - -122 -12.25 868.3MHz, SF9BW125, 4/5CR
2026-05-07 16:08:26 15.9375°C 60.9375% 4 μg/m³ 4 μg/m³ 3.27V v255 52.1224 / 5.18616 24012 ttn.v3 3.78km -107 0 867.7MHz, SF9BW125, 4/5CR
- -130 -13 867.7MHz, SF9BW125, 4/5CR
2026-05-07 15:51:59 15.8125°C 61.75% 2 μg/m³ 2 μg/m³ 3.27V v255 52.1224 / 5.18616 24011 ttn.v3 - -125 -9.75 868.1MHz, SF9BW125, 4/5CR
2026-05-07 14:46:13 16.8125°C 58% 2 μg/m³ 2 μg/m³ 3.27V v255 52.1224 / 5.18616 24007 ttn.v3 - -130 -14 868.3MHz, SF9BW125, 4/5CR
2026-05-07 14:29:47 16.8125°C 54.375% 2 μg/m³ 2 μg/m³ 3.27V v255 52.1224 / 5.18616 24006 ttn.v3 3.78km -109 1.75 867.1MHz, SF9BW125, 4/5CR
- -116 -2 867.1MHz, SF9BW125, 4/5CR
2026-05-07 13:56:53 18.75°C 54.125% 2 μg/m³ 2 μg/m³ 3.27V v255 52.1224 / 5.18616 24004 ttn.v3 3.78km -104 -7.75 867.9MHz, SF9BW125, 4/5CR
- -124 -8.75 867.9MHz, SF9BW125, 4/5CR
- -130 -13 867.9MHz, SF9BW125, 4/5CR
2026-05-07 13:40:26 16.4375°C 61.0625% 5 μg/m³ 6 μg/m³ 3.27V v255 52.1224 / 5.18616 24003 ttn.v3 - -130 -13.5 868.5MHz, SF9BW125, 4/5CR
2026-05-07 13:24:00 15.25°C 63.3125% 7 μg/m³ 7 μg/m³ 3.27V v255 52.1224 / 5.18616 24002 ttn.v3 - -123 -6.75 867.7MHz, SF9BW125, 4/5CR
3.78km -107 -7.5 867.7MHz, SF9BW125, 4/5CR
2026-05-07 12:34:42 15.125°C 65.3125% 11 μg/m³ 12 μg/m³ 3.27V v255 52.1224 / 5.18616 23999 ttn.v3 - -112 -3 868.1MHz, SF9BW125, 4/5CR
- -124 -8 868.1MHz, SF9BW125, 4/5CR
2026-05-07 12:01:49 16.6875°C 60.0625% 2 μg/m³ 2 μg/m³ 3.27V v255 52.1224 / 5.18616 23997 ttn.v3 - -122 -8 868.5MHz, SF9BW125, 4/5CR
2026-05-07 11:45:22 21.375°C 47.8125% 8 μg/m³ 11 μg/m³ 3.26V v255 52.1224 / 5.18616 23996 ttn.v3 3.78km -109 0.25 867.1MHz, SF9BW125, 4/5CR
- -115 -12.75 867.1MHz, SF9BW125, 4/5CR
2026-05-07 11:28:54 19.8125°C 52.1875% 7 μg/m³ 9 μg/m³ 3.27V v255 52.1224 / 5.18616 23995 ttn.v3 - -127 -11.5 868.3MHz, SF9BW125, 4/5CR
- -121 -12.5 868.3MHz, SF9BW125, 4/5CR
2026-05-07 11:12:27 19.5°C 52.6875% 2 μg/m³ 2 μg/m³ 3.26V v255 52.1224 / 5.18616 23994 ttn.v3 3.78km -104 -5.5 867.9MHz, SF9BW125, 4/5CR
2026-05-07 10:56:00 19°C 53.4375% 2 μg/m³ 2 μg/m³ 3.27V v255 52.1224 / 5.18616 23993 ttn.v3 - -127 -11.75 868.1MHz, SF9BW125, 4/5CR
- -130 -13.5 868.1MHz, SF9BW125, 4/5CR
2026-05-07 10:39:33 17.625°C 57.875% 3 μg/m³ 4 μg/m³ 3.27V v255 52.1224 / 5.18616 23992 ttn.v3 3.78km -105 -3 867.7MHz, SF9BW125, 4/5CR
2026-05-07 10:23:06 14.75°C 90.875% 1 μg/m³ 1 μg/m³ 3.27V v255 52.1224 / 5.18616 23991 ttn.v3 - -123 -8.25 868.5MHz, SF9BW125, 4/5CR
2026-05-07 09:17:25 10.875°C 68.3125% 12 μg/m³ 25 μg/m³ 3.27V v255 52.1224 / 5.18616 23987 ttn.v3 3.78km -102 -4.5 868.1MHz, SF9BW125, 4/5CR
2026-05-07 09:01:01 10.5°C 59.25% 6 μg/m³ 7 μg/m³ 3.27V v255 52.1224 / 5.18616 23986 ttn.v3 3.78km -107 1.5 867.1MHz, SF9BW125, 4/5CR
- -110 -7.75 867.1MHz, SF9BW125, 4/5CR
- -126 -9.25 867.1MHz, SF9BW125, 4/5CR
2026-05-07 08:44:36 10.0625°C 50.0625% 1 μg/m³ 2 μg/m³ 3.27V v255 52.1224 / 5.18616 23985 ttn.v3 - -122 -8.25 868.5MHz, SF9BW125, 4/5CR
2026-05-07 08:28:11 9.6875°C 39% 4 μg/m³ 6 μg/m³ 3.28V v255 52.1224 / 5.18616 23984 ttn.v3 3.78km -108 -2 867.9MHz, SF9BW125, 4/5CR
- -113 -2.5 867.9MHz, SF9BW125, 4/5CR
- -124 -8.5 867.9MHz, SF9BW125, 4/5CR
2026-05-07 07:55:22 8.6875°C 38.9375% 4 μg/m³ 5 μg/m³ 3.27V v255 52.1224 / 5.18616 23982 ttn.v3 - -121 -6.25 867.7MHz, SF9BW125, 4/5CR
3.78km -105 -10.25 867.7MHz, SF9BW125, 4/5CR
2026-05-07 07:38:58 8.3125°C 38.875% 2 μg/m³ 3 μg/m³ 3.28V v255 52.1224 / 5.18616 23981 ttn.v3 - -122 -7.5 868.1MHz, SF9BW125, 4/5CR
2026-05-07 07:22:34 7.875°C 38.8125% 4 μg/m³ 4 μg/m³ 3.28V v255 52.1224 / 5.18616 23980 ttn.v3 - -121 -9.25 867.5MHz, SF9BW125, 4/5CR
2026-05-07 07:06:10 7.625°C 38.8125% 7 μg/m³ 10 μg/m³ 3.28V v255 52.1224 / 5.18616 23979 ttn.v3 - -127 -12.25 868.5MHz, SF9BW125, 4/5CR
2026-05-07 06:49:45 7.5°C 38.8125% 10 μg/m³ 15 μg/m³ 3.28V v255 52.1224 / 5.18616 23978 ttn.v3 - -111 -0.5 867.3MHz, SF9BW125, 4/5CR
3.78km -99 -1.75 867.3MHz, SF9BW125, 4/5CR
- -124 -8.75 867.3MHz, SF9BW125, 4/5CR
2026-05-07 06:16:57 6.9375°C 38.75% 4 μg/m³ 5 μg/m³ 3.28V v255 52.1224 / 5.18616 23976 ttn.v3 3.78km -105 -5 867.1MHz, SF9BW125, 4/5CR
2026-05-07 06:00:33 6.75°C 38.75% 8 μg/m³ 11 μg/m³ 3.28V v255 52.1224 / 5.18616 23975 ttn.v3 3.78km -105 -6.25 868.1MHz, SF9BW125, 4/5CR
- -125 -9.25 868.1MHz, SF9BW125, 4/5CR
- -116 -13.25 868.1MHz, SF9BW125, 4/5CR
2026-05-07 05:44:09 6.75°C 38.6875% 2 μg/m³ 3 μg/m³ 3.28V v255 52.1224 / 5.18616 23974 ttn.v3 - -131 -14.5 867.9MHz, SF9BW125, 4/5CR
2026-05-07 05:11:21 6.8125°C 38.75% 2 μg/m³ 3 μg/m³ 3.28V v255 52.1224 / 5.18616 23972 ttn.v3 3.78km -107 -6.75 867.7MHz, SF9BW125, 4/5CR
2026-05-07 04:38:33 6.875°C 38.75% 2 μg/m³ 2 μg/m³ 3.28V v255 52.1224 / 5.18616 23970 ttn.v3 - -120 -7.25 867.5MHz, SF9BW125, 4/5CR
- -111 -13.75 867.5MHz, SF9BW125, 4/5CR
2026-05-07 04:22:09 7°C 38.75% 4 μg/m³ 6 μg/m³ 3.28V v255 52.1224 / 5.18616 23969 ttn.v3 - -119 -6.75 868.1MHz, SF9BW125, 4/5CR
- -125 -10.25 868.1MHz, SF9BW125, 4/5CR
2026-05-07 04:05:45 7.375°C 38.75% 3 μg/m³ 4 μg/m³ 3.28V v255 52.1224 / 5.18616 23968 ttn.v3 - -113 0.25 867.3MHz, SF9BW125, 4/5CR
3.78km -109 -2.5 867.3MHz, SF9BW125, 4/5CR
- -124 -8.25 867.3MHz, SF9BW125, 4/5CR
2026-05-07 03:49:21 7.75°C 38.875% 5 μg/m³ 6 μg/m³ 3.28V v255 52.1224 / 5.18616 23967 ttn.v3 - -130 -12.25 868.5MHz, SF9BW125, 4/5CR
2026-05-07 03:32:56 7.9375°C 94% 4 μg/m³ 4 μg/m³ 3.28V v255 52.1224 / 5.18616 23966 ttn.v3 3.78km -104 -3.75 867.1MHz, SF9BW125, 4/5CR
2026-05-07 03:17:21 8.0625°C 4.4375% 2 μg/m³ 2 μg/m³ 3.27V v255 52.1224 / 5.18616 23965 ttn.v3 - -125 -13.5 868.3MHz, SF12BW125, 4/5CR
- -116 -17 868.3MHz, SF12BW125, 4/5CR
3.78km -97 -17.5 868.3MHz, SF12BW125, 4/5CR
2026-05-07 03:00:12 8.1875°C 90.4375% 2 μg/m³ 3 μg/m³ 3.28V v255 52.1224 / 5.18607 23964 ttn.v3 - -112 -2.75 867.9MHz, SF9BW125, 4/5CR
3.776km -103 -7.5 867.9MHz, SF9BW125, 4/5CR
- -130 -14 867.9MHz, SF9BW125, 4/5CR
2026-05-07 02:43:48 8.3125°C 90.9375% 2 μg/m³ 2 μg/m³ 3.28V v255 52.1224 / 5.18607 23963 ttn.v3 - -122 -6 868.1MHz, SF9BW125, 4/5CR
- -122 -9.75 868.1MHz, SF9BW125, 4/5CR
2026-05-07 02:27:23 8.6875°C 118.625% 2 μg/m³ 2 μg/m³ 3.28V v255 52.1224 / 5.18607 23962 ttn.v3 - -112 1.25 867.7MHz, SF9BW125, 4/5CR
3.776km -97 -2.5 867.7MHz, SF9BW125, 4/5CR
- -121 -4.5 867.7MHz, SF9BW125, 4/5CR
- -130 -13.25 867.7MHz, SF9BW125, 4/5CR
2026-05-07 01:21:45 9.9375°C 87.6875% 2 μg/m³ 2 μg/m³ 3.27V v255 52.1224 / 5.18607 23958 ttn.v3 - -111 1 867.3MHz, SF9BW125, 4/5CR
3.776km -105 0 867.3MHz, SF9BW125, 4/5CR
- -120 -3.5 867.3MHz, SF9BW125, 4/5CR
2026-05-07 01:05:20 10.125°C 103% 5 μg/m³ 8 μg/m³ 3.27V v255 52.1224 / 5.18607 23957 ttn.v3 3.776km -107 -7.5 868.1MHz, SF9BW125, 4/5CR
- -116 -11.5 868.1MHz, SF9BW125, 4/5CR
- -130 -13.5 868.1MHz, SF9BW125, 4/5CR
2026-05-07 00:48:55 10.3125°C 104.438% 2 μg/m³ 2 μg/m³ 3.27V v255 52.1224 / 5.18607 23956 ttn.v3 - -111 -4 867.1MHz, SF9BW125, 4/5CR
3.776km -104 -6.25 867.1MHz, SF9BW125, 4/5CR
- -120 -6.5 867.1MHz, SF9BW125, 4/5CR
2026-05-07 00:32:30 10.5°C 105% 3 μg/m³ 3 μg/m³ 3.27V v255 52.1224 / 5.18607 23955 ttn.v3 - -126 -9.75 868.5MHz, SF9BW125, 4/5CR
2026-05-07 00:16:05 10.75°C 114.312% 6 μg/m³ 9 μg/m³ 3.27V v255 52.1224 / 5.18607 23954 ttn.v3 - -113 1 867.9MHz, SF9BW125, 4/5CR
3.776km -107 0.25 867.9MHz, SF9BW125, 4/5CR
- -126 -10 867.9MHz, SF9BW125, 4/5CR
- -131 -14.75 867.9MHz, SF9BW125, 4/5CR
2026-05-06 23:43:15 11°C 114.188% 4 μg/m³ 5 μg/m³ 3.27V v255 52.1224 / 5.18607 23952 ttn.v3 3.776km -104 0 867.7MHz, SF9BW125, 4/5CR
- -129 -11.75 867.7MHz, SF9BW125, 4/5CR
2026-05-06 23:26:50 11.0625°C 111.125% 3 μg/m³ 4 μg/m³ 3.27V v255 52.1224 / 5.18607 23951 ttn.v3 - -111 -1.5 868.1MHz, SF9BW125, 4/5CR
- -120 -4.75 868.1MHz, SF9BW125, 4/5CR
2026-05-06 22:37:35 11.5°C 113.75% 2 μg/m³ 2 μg/m³ 3.27V v255 52.1224 / 5.18607 23948 ttn.v3 3.776km -107 -4.5 867.3MHz, SF9BW125, 4/5CR
2026-05-06 22:04:45 11.8125°C 113.25% 3 μg/m³ 3 μg/m³ 3.27V v255 52.1224 / 5.18607 23946 ttn.v3 - -114 -3.25 867.1MHz, SF9BW125, 4/5CR
- -121 -4.75 867.1MHz, SF9BW125, 4/5CR
2026-05-06 21:48:20 12.125°C 112.938% 3 μg/m³ 3 μg/m³ 3.27V v255 52.1224 / 5.18607 23945 ttn.v3 3.776km -105 -5.75 868.1MHz, SF9BW125, 4/5CR
- -123 -6.75 868.1MHz, SF9BW125, 4/5CR
2026-05-06 21:31:54 12.25°C 88.5% 3 μg/m³ 3 μg/m³ 3.27V v255 52.1224 / 5.18607 23944 ttn.v3 3.776km -108 -1.75 867.9MHz, SF9BW125, 4/5CR
- -113 -9.25 867.9MHz, SF9BW125, 4/5CR
- -126 -9.75 867.9MHz, SF9BW125, 4/5CR
2026-05-06 20:59:04 12.625°C 76.6875% 2 μg/m³ 2 μg/m³ 3.27V v255 52.1224 / 5.18607 23942 ttn.v3 - -111 -1.25 867.7MHz, SF9BW125, 4/5CR
3.776km -107 -4.25 867.7MHz, SF9BW125, 4/5CR
- -120 -5.25 867.7MHz, SF9BW125, 4/5CR
- -130 -13.5 867.7MHz, SF9BW125, 4/5CR
2026-05-06 20:09:47 12.6875°C 69.0625% 3 μg/m³ 3 μg/m³ 3.27V v255 52.1224 / 5.18607 23939 ttn.v3 - -120 -5.5 868.1MHz, SF9BW125, 4/5CR
3.776km -107 -5.75 868.1MHz, SF9BW125, 4/5CR
- -123 -7.25 868.1MHz, SF9BW125, 4/5CR
- -130 -13.75 868.1MHz, SF9BW125, 4/5CR
2026-05-06 19:36:56 13.1875°C 67.3125% 4 μg/m³ 4 μg/m³ 3.27V v255 52.1224 / 5.18607 23937 ttn.v3 - -107 -4.25 868.5MHz, SF9BW125, 4/5CR
- -120 -6.25 868.5MHz, SF9BW125, 4/5CR
- -129 -12 868.5MHz, SF9BW125, 4/5CR
2026-05-06 19:20:31 13.375°C 65.125% 2 μg/m³ 2 μg/m³ 3.27V v255 52.1224 / 5.18607 23936 ttn.v3 3.776km -105 -1 867.1MHz, SF9BW125, 4/5CR
- -111 -1.75 867.1MHz, SF9BW125, 4/5CR
- -121 -4.5 867.1MHz, SF9BW125, 4/5CR
2026-05-06 18:47:39 13.625°C 64.625% 4 μg/m³ 4 μg/m³ 3.27V v255 52.1224 / 5.18607 23934 ttn.v3 3.776km -104 2 867.9MHz, SF9BW125, 4/5CR
- -112 1.5 867.9MHz, SF9BW125, 4/5CR
- -122 -6.25 867.9MHz, SF9BW125, 4/5CR
2026-05-06 18:31:14 13.8125°C 62.1875% 4 μg/m³ 4 μg/m³ 3.27V v255 52.1224 / 5.18607 23933 ttn.v3 - -113 -2.75 868.1MHz, SF9BW125, 4/5CR
3.776km -104 -4.5 868.1MHz, SF9BW125, 4/5CR
2026-05-06 18:14:48 14.125°C 62.6875% 5 μg/m³ 5 μg/m³ 3.27V v255 52.1224 / 5.18607 23932 ttn.v3 - -132 -15.25 867.7MHz, SF9BW125, 4/5CR
2026-05-06 17:09:05 13.6875°C 62.1875% 4 μg/m³ 5 μg/m³ 3.27V v255 52.1224 / 5.18607 23928 ttn.v3 3.776km -101 -8.75 867.3MHz, SF9BW125, 4/5CR
2026-05-06 16:52:40 13.5625°C 64.3125% 3 μg/m³ 3 μg/m³ 3.27V v255 52.1224 / 5.18607 23927 ttn.v3 - -120 -4.25 868.1MHz, SF9BW125, 4/5CR
- -131 -14 868.1MHz, SF9BW125, 4/5CR
2026-05-06 16:36:14 13.8125°C 63.5625% 1 μg/m³ 1 μg/m³ 3.27V v255 52.1224 / 5.18607 23926 ttn.v3 - -108 6.25 867.1MHz, SF9BW125, 4/5CR
3.776km -108 -6 867.1MHz, SF9BW125, 4/5CR
- -124 -7.75 867.1MHz, SF9BW125, 4/5CR
2026-05-06 16:19:48 13.9375°C 63.8125% 1 μg/m³ 1 μg/m³ 3.27V v255 52.1224 / 5.18607 23925 ttn.v3 - -127 -12.25 868.5MHz, SF9BW125, 4/5CR
2026-05-06 16:03:22 13.0625°C 63.8125% 3 μg/m³ 4 μg/m³ 3.27V v255 52.1224 / 5.18607 23924 ttn.v3 3.776km -105 -4.5 867.9MHz, SF9BW125, 4/5CR
2026-05-06 15:46:57 13.3125°C 64.0625% 6 μg/m³ 6 μg/m³ 3.27V v255 52.1224 / 5.18607 23923 ttn.v3 - -106 -7.75 868.3MHz, SF9BW125, 4/5CR
2026-05-06 15:30:31 13.25°C 63.25% 2 μg/m³ 2 μg/m³ 3.27V v255 52.1224 / 5.18607 23922 ttn.v3 3.776km -107 -8.75 867.7MHz, SF9BW125, 4/5CR
2026-05-06 15:14:06 13.1875°C 63.5625% 3 μg/m³ 5 μg/m³ 3.27V v255 52.1224 / 5.18607 23921 ttn.v3 3.776km -99 -4 868.1MHz, SF9BW125, 4/5CR
- -112 -4.75 868.1MHz, SF9BW125, 4/5CR
2026-05-06 14:41:15 13.625°C 60.875% 1 μg/m³ 1 μg/m³ 3.27V v255 52.1224 / 5.18607 23919 ttn.v3 - -124 -11.25 868.5MHz, SF9BW125, 4/5CR
2026-05-06 14:24:49 13.6875°C 58.375% 2 μg/m³ 2 μg/m³ 3.27V v255 52.1224 / 5.18607 23918 ttn.v3 - -116 -1.25 867.3MHz, SF9BW125, 4/5CR
3.776km -102 -3.5 867.3MHz, SF9BW125, 4/5CR
2026-05-06 13:51:57 14.1875°C 60.9375% 1 μg/m³ 1 μg/m³ 3.27V v255 52.1224 / 5.18607 23916 ttn.v3 3.776km -107 -1.25 867.1MHz, SF9BW125, 4/5CR
- -119 -2.25 867.1MHz, SF9BW125, 4/5CR
- -118 -4.5 867.1MHz, SF9BW125, 4/5CR
2026-05-06 13:35:32 14.375°C 59.5625% 4 μg/m³ 4 μg/m³ 3.27V v255 52.1224 / 5.18607 23915 ttn.v3 - -109 0.75 868.1MHz, SF9BW125, 4/5CR
3.776km -103 -3 868.1MHz, SF9BW125, 4/5CR
- -120 -3.5 868.1MHz, SF9BW125, 4/5CR
2026-05-06 13:19:06 14.25°C 65.75% 8 μg/m³ 9 μg/m³ 3.27V v255 52.1224 / 5.18607 23914 ttn.v3 - -112 1 867.9MHz, SF9BW125, 4/5CR
3.776km -109 -12 867.9MHz, SF9BW125, 4/5CR
2026-05-06 12:29:48 15°C 62.875% 3 μg/m³ 3 μg/m³ 3.27V v255 52.1224 / 5.18607 23911 ttn.v3 - -109 -13 868.3MHz, SF9BW125, 4/5CR
- -119 -13.25 868.3MHz, SF9BW125, 4/5CR
2026-05-06 11:56:56 15.9375°C 59.6875% 4 μg/m³ 4 μg/m³ 3.27V v255 52.1224 / 5.18607 23909 ttn.v3 - -109 -1.5 868.1MHz, SF9BW125, 4/5CR
2026-05-06 11:24:03 17°C 108.438% 4 μg/m³ 4 μg/m³ 3.27V v255 52.1224 / 5.18607 23907 ttn.v3 - -120 -9.25 868.5MHz, SF9BW125, 4/5CR
2026-05-06 11:07:37 16.625°C 105.625% 4 μg/m³ 4 μg/m³ 3.27V v255 52.1224 / 5.18607 23906 ttn.v3 - -108 5 867.1MHz, SF9BW125, 4/5CR
- -119 -2 867.1MHz, SF9BW125, 4/5CR
3.776km -109 -2 867.1MHz, SF9BW125, 4/5CR
2026-05-06 10:51:10 16.5°C 101.812% 6 μg/m³ 6 μg/m³ 3.27V v255 52.1224 / 5.18607 23905 ttn.v3 - -119 -7.75 868.3MHz, SF9BW125, 4/5CR
2026-05-06 10:34:44 14.3125°C 88.9375% 2 μg/m³ 2 μg/m³ 3.27V v255 52.1224 / 5.18607 23904 ttn.v3 - -121 -4.25 867.9MHz, SF9BW125, 4/5CR
- -112 -4.75 867.9MHz, SF9BW125, 4/5CR
2026-05-06 10:18:18 14°C 112.438% 4 μg/m³ 4 μg/m³ 3.27V v255 52.1224 / 5.18607 23903 ttn.v3 - -120 -5.25 868.1MHz, SF9BW125, 4/5CR
- -121 -10.75 868.1MHz, SF9BW125, 4/5CR
- -131 -14.75 868.1MHz, SF9BW125, 4/5CR
2026-05-06 10:01:53 13.1875°C 85.875% 8 μg/m³ 8 μg/m³ 3.27V v255 52.1224 / 5.18607 23902 ttn.v3 - -117 -2.5 867.7MHz, SF9BW125, 4/5CR
- -116 -5 867.7MHz, SF9BW125, 4/5CR
3.776km -105 -6.25 867.7MHz, SF9BW125, 4/5CR

Message count: 200
Node count: 1

Messages per node

Number of messages in list aboveNodes
200

Statistics per gateway

GatewayNumber of messagesNumber of nodesNodes
1331
1151 (3.776km)
871
551

Filter by dataset